Pagrindinis puslapis
METAR-TAF:

METAR-TAF

Oro uostai :

Kosraė, Mikronezija

platuma: 05-21N, ilguma: 162-57E, Aukštis: 3 m

Dabartinis oras

Ataskaita buvo paskelbta 15 valandos ir 47 minutes, ne 01:55 UTC
Vėjas 10 kt iš Pietų
Temperatūra 27°C
Drėgmė 84%
Slėgis 1008 hPa
Matomumas: 16.1 km
Išsisklaidę debesys ne aukštis 1900 ft
Su prošvaistėmis ne aukštis 13000 ft
Apsiniaukę ne aukštis 30000 ft

METAR: PTSA 070155Z 17010KT 10SM SCT019 BKN130 OVC300 27/24 A2976 RMK LAST

Laikas: 04:42 (17:42 UTC)

Prognozė

Ataskaita buvo paskelbta 18 valandos ir 7 minutes, ne 23:35 UTC
Prognozė galioja nuo 07 metu 00 UTC su 07 metu 24 UTC
Vėjas 11 kt iš Pietų/Pietryčių
Matomumas: 10 km
Išsisklaidę debesys ne aukštis 1600 ft
Išsisklaidę debesys ne aukštis 8000 ft
Su prošvaistėmis ne aukštis 13000 ft
Liūtis kaimynystėje
Laikinai
nuo 07 metu 00 UTC su 07 metu 03 UTC
lietus

TAF: PTSA 062335Z 0700/0724 16011KT P6SM VCSH SCT016 SCT080 BKN130 TEMPO 0700/0703 -SHRA

Orai ataskaitas ir orų prognozės (METAR, TAF).

turimą stotys yra geltonos ir raudonos taškus žemėlapyje.

Perkelti pele per norėdami pamatyti stoties vardą.

Tada spustelėkite, norėdami matyti oro stebėjimo ir prognozės.

Norėdami pakeisti žemėlapį: spustelėkite ant žalios mygtukų su juodo kryžiaus žemyn,; žalią mygtuką su brūkšneliu, jei norite nutolinti; arba žalių rodyklių gretimoms žemėlapius.


METAR-TAF: